createdAt,value
2022-12-01T00:01:27.025Z,98166.13
2022-12-01T00:03:55.303Z,98181.38
2022-12-01T00:06:23.634Z,98181.38
2022-12-01T00:09:06.853Z,98160.53
2022-12-01T00:11:35.929Z,98154.72
2022-12-01T00:14:04.481Z,98141.63
2022-12-01T00:16:34.763Z,98174.81
2022-12-01T00:19:02.949Z,98168.13
2022-12-01T00:21:30.785Z,98167.09
2022-12-01T00:23:59.355Z,98164.28
2022-12-01T00:26:28.399Z,98168.44
2022-12-01T00:28:58.088Z,98156.13
2022-12-01T00:31:27.009Z,98146.25
2022-12-01T00:33:56.578Z,98154.06
2022-12-01T00:36:24.979Z,98162.91
2022-12-01T00:38:53.766Z,98164.56
2022-12-01T00:41:22.093Z,98150.47
2022-12-01T00:43:49.873Z,98173.75
2022-12-01T00:46:17.903Z,98162.75
2022-12-01T00:48:45.793Z,98171.56
2022-12-01T00:51:15.110Z,98167.72
2022-12-01T00:53:42.905Z,98177.75
2022-12-01T00:56:10.777Z,98173.63
2022-12-01T00:58:38.683Z,98176.44
2022-12-01T01:01:06.859Z,98169.31
2022-12-01T01:03:35.422Z,98170.81
2022-12-01T01:06:07.762Z,98166.00
2022-12-01T01:08:37.468Z,98173.81
2022-12-01T01:11:06.189Z,98175.81
2022-12-01T01:13:34.671Z,98176.63
2022-12-01T01:16:04.463Z,98183.81
2022-12-01T01:18:32.898Z,98145.22
2022-12-01T01:21:03.033Z,98155.78
2022-12-01T01:23:31.263Z,98182.50
2022-12-01T01:26:03.917Z,98181.47
2022-12-01T01:28:32.575Z,98184.81
2022-12-01T01:31:00.611Z,98170.47
2022-12-01T01:33:28.442Z,98164.91
2022-12-01T01:35:59.788Z,98188.09
2022-12-01T01:38:27.822Z,98179.13
2022-12-01T01:40:56.082Z,98190.22
2022-12-01T01:46:32.833Z,98184.66
2022-12-01T01:49:03.203Z,98191.44
2022-12-01T01:51:36.831Z,98191.91
2022-12-01T01:54:08.676Z,98189.84
2022-12-01T01:56:37.787Z,98186.38
2022-12-01T01:59:05.922Z,98185.66
2022-12-01T02:01:35.172Z,98184.22
2022-12-01T02:04:05.034Z,98188.16
2022-12-01T02:06:32.926Z,98165.16
2022-12-01T02:09:00.708Z,98168.78
2022-12-01T02:11:49.493Z,98191.03
2022-12-01T02:14:44.401Z,98186.81
2022-12-01T02:17:26.517Z,98161.75
2022-12-01T02:20:41.583Z,98177.06
2022-12-01T02:23:31.670Z,98177.47
2022-12-01T02:26:17.359Z,98163.16
2022-12-01T02:29:06.847Z,98166.66
2022-12-01T02:31:44.199Z,98166.44
2022-12-01T02:34:22.672Z,98168.31
2022-12-01T02:36:56.485Z,98159.03
2022-12-01T02:39:31.839Z,98166.06
2022-12-01T02:42:05.144Z,98153.41
2022-12-01T02:44:37.302Z,98168.59
2022-12-01T02:47:11.709Z,98168.00
2022-12-01T02:49:46.114Z,98156.38
2022-12-01T02:52:16.307Z,98165.34
2022-12-01T02:54:46.833Z,98158.78
2022-12-01T02:57:16.159Z,98145.03
2022-12-01T02:59:48.832Z,98154.94
2022-12-01T03:02:28.607Z,98159.56
2022-12-01T03:05:05.703Z,98155.97
2022-12-01T03:07:44.871Z,98151.59
2022-12-01T03:10:21.220Z,98163.00
2022-12-01T03:13:08.716Z,98154.59
2022-12-01T03:15:45.561Z,98150.97
2022-12-01T03:18:26.920Z,98160.72
2022-12-01T03:21:01.573Z,98156.25
2022-12-01T03:23:33.345Z,98161.63
2022-12-01T03:26:07.056Z,98159.84
2022-12-01T03:28:39.138Z,98142.72
2022-12-01T03:31:10.287Z,98151.31
2022-12-01T03:33:43.271Z,98141.50
2022-12-01T03:36:17.417Z,98152.91
2022-12-01T03:38:49.467Z,98154.91
2022-12-01T03:41:22.743Z,98155.28
2022-12-01T03:43:57.006Z,98148.56
2022-12-01T03:46:31.390Z,98138.16
2022-12-01T03:49:00.694Z,98143.38
2022-12-01T03:51:37.890Z,98141.38
2022-12-01T03:54:13.173Z,98150.78
2022-12-01T03:56:47.873Z,98152.63
2022-12-01T03:59:18.985Z,98155.88
2022-12-01T04:01:47.164Z,98150.41
2022-12-01T04:04:16.759Z,98146.88
2022-12-01T04:06:47.194Z,98157.88
2022-12-01T04:09:15.073Z,98161.03
2022-12-01T04:12:01.566Z,98159.53
2022-12-01T04:14:30.173Z,98172.22
2022-12-01T04:16:57.976Z,98156.31
2022-12-01T04:19:27.313Z,98164.00
2022-12-01T04:21:55.295Z,98173.41
2022-12-01T04:24:23.573Z,98157.03
2022-12-01T04:26:51.760Z,98157.75
2022-12-01T04:29:19.947Z,98153.78
2022-12-01T04:31:48.015Z,98157.84
2022-12-01T04:34:19.151Z,98152.97
2022-12-01T04:36:48.682Z,98159.84
2022-12-01T04:39:16.925Z,98150.66
2022-12-01T04:41:45.192Z,98157.00
2022-12-01T04:44:13.516Z,98161.97
2022-12-01T04:46:41.763Z,98164.06
2022-12-01T04:49:10.143Z,98159.09
2022-12-01T04:51:38.401Z,98160.56
2022-12-01T04:54:07.964Z,98173.34
2022-12-01T04:56:35.895Z,98171.56
2022-12-01T04:59:04.051Z,98161.22
2022-12-01T05:01:32.210Z,98148.78
2022-12-01T05:04:00.295Z,98163.16
2022-12-01T05:06:30.104Z,98166.53
2022-12-01T05:09:00.148Z,98152.16
2022-12-01T05:11:31.316Z,98161.97
2022-12-01T05:13:59.767Z,98152.81
2022-12-01T05:16:29.906Z,98169.44
2022-12-01T05:19:14.189Z,98176.41
2022-12-01T05:21:42.798Z,98169.69
2022-12-01T05:24:12.415Z,98169.53
2022-12-01T05:26:43.111Z,98176.50
2022-12-01T05:29:12.062Z,98166.50
2022-12-01T05:31:40.375Z,98150.94
2022-12-01T05:34:08.417Z,98168.09
2022-12-01T05:36:36.697Z,98150.41
2022-12-01T05:39:04.977Z,98150.31
2022-12-01T05:41:33.298Z,98154.16
2022-12-01T05:44:02.927Z,98154.28
2022-12-01T05:46:30.983Z,98165.66
2022-12-01T05:48:58.973Z,98151.31
2022-12-01T05:51:27.056Z,98164.09
2022-12-01T05:53:55.244Z,98161.31
2022-12-01T05:56:23.291Z,98159.88
2022-12-01T05:58:51.367Z,98160.00
2022-12-01T06:01:21.155Z,98150.00
2022-12-01T06:03:49.355Z,98162.53
2022-12-01T06:06:17.584Z,98159.63
2022-12-01T06:08:45.596Z,98166.28
2022-12-01T06:11:13.523Z,98173.81
2022-12-01T06:13:41.693Z,98165.53
2022-12-01T06:16:09.910Z,98163.00
2022-12-01T06:18:40.798Z,98150.78
2022-12-01T06:21:08.978Z,98163.53
2022-12-01T06:23:37.100Z,98166.59
2022-12-01T06:26:05.895Z,98160.31
2022-12-01T06:28:37.004Z,98163.66
2022-12-01T06:31:07.866Z,98176.06
2022-12-01T06:33:36.411Z,98175.00
2022-12-01T06:36:08.378Z,98186.09
2022-12-01T06:38:38.127Z,98154.75
2022-12-01T06:41:07.042Z,98178.91
2022-12-01T06:43:38.039Z,98169.09
2022-12-01T06:46:09.382Z,98183.41
2022-12-01T06:48:41.157Z,98184.78
2022-12-01T06:51:11.142Z,98185.25
2022-12-01T06:53:39.287Z,98190.31
2022-12-01T06:56:08.572Z,98187.63
2022-12-01T06:58:36.663Z,98186.53
2022-12-01T07:01:09.866Z,98188.84
2022-12-01T07:03:37.847Z,98195.50
2022-12-01T07:06:06.496Z,98202.75
2022-12-01T07:08:36.162Z,98197.31
2022-12-01T07:11:05.870Z,98197.53
2022-12-01T07:13:34.217Z,98204.22
2022-12-01T07:16:03.335Z,98182.28
2022-12-01T07:18:31.990Z,98208.78
2022-12-01T07:21:01.638Z,98205.03
2022-12-01T07:23:30.033Z,98207.47
2022-12-01T07:26:03.878Z,98215.44
2022-12-01T07:28:32.474Z,98200.59
2022-12-01T07:31:05.355Z,98215.84
2022-12-01T07:33:33.845Z,98203.09
2022-12-01T07:36:01.976Z,98214.31
2022-12-01T07:38:30.636Z,98215.75
2022-12-01T07:41:05.150Z,98216.03
2022-12-01T07:43:34.250Z,98214.22
2022-12-01T07:46:07.121Z,98213.22
2022-12-01T07:48:35.288Z,98216.94
2022-12-01T07:51:03.825Z,98212.59
2022-12-01T07:53:31.811Z,98212.09
2022-12-01T07:56:03.109Z,98204.78
2022-12-01T07:58:35.415Z,98214.06
2022-12-01T08:01:07.732Z,98196.25
2022-12-01T08:03:35.763Z,98197.50
2022-12-01T08:06:05.207Z,98188.47
2022-12-01T08:08:34.429Z,98208.00
2022-12-01T08:11:04.002Z,98216.34
2022-12-01T08:13:32.359Z,98213.69
2022-12-01T08:16:04.682Z,98206.91
2022-12-01T08:18:34.979Z,98208.81
2022-12-01T08:21:03.139Z,98211.09
2022-12-01T08:23:31.420Z,98219.03
2022-12-01T08:26:02.163Z,98214.53
2022-12-01T08:28:31.025Z,98219.84
2022-12-01T08:30:59.106Z,98203.53
2022-12-01T08:33:30.258Z,98212.31
2022-12-01T08:35:58.223Z,98212.59
2022-12-01T08:38:26.200Z,98199.97
2022-12-01T08:40:56.500Z,98199.47
2022-12-01T08:46:14.243Z,98210.00
2022-12-01T08:48:44.339Z,98213.38
2022-12-01T08:51:14.113Z,98215.81
2022-12-01T08:53:45.823Z,98210.25
2022-12-01T08:56:16.373Z,98218.00
2022-12-01T08:58:44.624Z,98218.72
2022-12-01T09:01:15.801Z,98225.31
2022-12-01T09:03:45.958Z,98215.28
2022-12-01T09:06:16.542Z,98211.19
2022-12-01T09:08:45.357Z,98213.13
2022-12-01T09:11:15.392Z,98220.31
2022-12-01T09:13:45.418Z,98219.34
2022-12-01T09:16:17.278Z,98215.56
2022-12-01T09:18:48.310Z,98232.31
2022-12-01T09:21:18.643Z,98224.31
2022-12-01T09:23:47.083Z,98233.66
2022-12-01T09:26:18.660Z,98222.88
2022-12-01T09:28:47.300Z,98224.59
2022-12-01T09:31:18.601Z,98229.47
2022-12-01T09:33:48.488Z,98226.22
2022-12-01T09:36:16.426Z,98229.09
2022-12-01T09:38:44.360Z,98220.53
2022-12-01T09:41:19.185Z,98222.22
2022-12-01T09:43:51.996Z,98231.06
2022-12-01T09:46:27.124Z,98221.63
2022-12-01T09:48:57.971Z,98224.03
2022-12-01T09:51:28.844Z,98215.69
2022-12-01T09:53:59.802Z,98210.53
2022-12-01T09:56:30.245Z,98201.09
2022-12-01T09:59:00.825Z,98214.88
2022-12-01T10:01:34.176Z,98209.28
2022-12-01T10:04:09.480Z,98217.09
2022-12-01T10:06:43.723Z,98211.09
2022-12-01T10:09:22.946Z,98210.09
2022-12-01T10:11:54.892Z,98200.66
2022-12-01T10:14:23.134Z,98207.13
2022-12-01T10:17:03.736Z,98203.06
2022-12-01T10:19:40.530Z,98198.66
2022-12-01T10:22:30.112Z,98194.31
2022-12-01T10:25:07.378Z,98197.25
2022-12-01T10:27:48.562Z,98186.38
2022-12-01T10:30:18.666Z,98186.50
2022-12-01T10:32:53.330Z,98185.38
2022-12-01T10:35:24.791Z,98185.09
2022-12-01T10:37:58.241Z,98170.38
2022-12-01T10:40:27.512Z,98162.66
2022-12-01T10:42:56.493Z,98170.19
2022-12-01T10:45:26.326Z,98166.78
2022-12-01T10:48:13.181Z,98170.03
2022-12-01T10:50:43.444Z,98171.28
2022-12-01T10:53:28.568Z,98168.97
2022-12-01T10:56:07.498Z,98182.19
2022-12-01T10:58:44.576Z,98167.06
2022-12-01T11:01:21.259Z,98170.13
2022-12-01T11:03:55.965Z,98144.34
2022-12-01T11:06:28.043Z,98178.69
2022-12-01T11:08:59.128Z,98151.59
2022-12-01T11:11:31.356Z,98163.22
2022-12-01T11:14:03.227Z,98151.53
2022-12-01T11:16:40.315Z,98159.47
2022-12-01T11:19:11.020Z,98159.22
2022-12-01T11:21:47.793Z,98151.19
2022-12-01T11:24:29.353Z,98152.22
2022-12-01T11:26:58.879Z,98163.59
2022-12-01T11:29:36.855Z,98157.44
2022-12-01T11:32:18.207Z,98146.19
2022-12-01T11:34:51.987Z,98130.88
2022-12-01T11:37:25.444Z,98136.53
2022-12-01T11:39:54.039Z,98136.34
2022-12-01T11:42:28.407Z,98144.97
2022-12-01T11:44:58.600Z,98137.38
2022-12-01T11:47:28.666Z,98140.53
2022-12-01T11:49:58.946Z,98133.19
2022-12-01T11:52:32.617Z,98125.44
2022-12-01T11:55:09.661Z,98142.22
2022-12-01T11:57:41.061Z,98131.88
2022-12-01T12:00:16.780Z,98137.22
2022-12-01T12:02:54.813Z,98138.19
2022-12-01T12:05:57.601Z,98134.94
2022-12-01T12:08:47.585Z,98127.31
2022-12-01T12:11:20.495Z,98123.28
2022-12-01T12:14:11.461Z,98135.16
2022-12-01T12:17:00.049Z,98136.81
2022-12-01T12:20:07.192Z,98121.59
2022-12-01T12:22:44.067Z,98121.47
2022-12-01T12:25:24.868Z,98107.53
2022-12-01T12:28:07.786Z,98125.81
2022-12-01T12:30:43.822Z,98106.25
2022-12-01T12:33:45.249Z,98108.88
2022-12-01T12:36:21.923Z,98114.06
2022-12-01T12:39:09.769Z,98105.25
2022-12-01T12:41:47.305Z,98112.56
2022-12-01T12:44:46.387Z,98082.09
2022-12-01T12:47:26.973Z,98111.25
2022-12-01T12:50:02.421Z,98105.94
2022-12-01T12:52:35.470Z,98112.09
2022-12-01T12:55:13.101Z,98111.31
2022-12-01T12:57:49.548Z,98111.50
2022-12-01T13:00:20.192Z,98110.38
2022-12-01T13:02:52.884Z,98103.97
2022-12-01T13:05:26.370Z,98099.00
2022-12-01T13:07:59.265Z,98102.63
2022-12-01T13:10:33.781Z,98106.88
2022-12-01T13:13:14.113Z,98104.16
2022-12-01T13:15:43.486Z,98099.53
2022-12-01T13:18:26.733Z,98100.47
2022-12-01T13:20:57.611Z,98093.88
2022-12-01T13:23:26.306Z,98094.25
2022-12-01T13:25:57.614Z,98091.31
2022-12-01T13:28:30.627Z,98085.91
2022-12-01T13:31:01.145Z,98090.78
2022-12-01T13:33:29.915Z,98096.47
2022-12-01T13:36:29.800Z,98081.91
2022-12-01T13:38:59.657Z,98090.81
2022-12-01T13:41:31.198Z,98090.56
2022-12-01T13:44:04.295Z,98082.44
2022-12-01T13:46:34.812Z,98072.97
2022-12-01T13:49:05.328Z,98083.50
2022-12-01T13:52:06.811Z,98087.84
2022-12-01T13:54:37.549Z,98090.25
2022-12-01T13:57:08.451Z,98073.28
2022-12-01T13:59:43.411Z,98050.91
2022-12-01T14:02:19.863Z,98082.19
2022-12-01T14:04:48.325Z,98086.78
2022-12-01T14:07:36.262Z,98076.78
2022-12-01T14:10:23.807Z,98076.78
2022-12-01T14:12:53.951Z,98087.31
2022-12-01T14:15:34.112Z,98073.44
2022-12-01T14:18:06.493Z,98079.75
2022-12-01T14:20:44.455Z,98078.69
2022-12-01T14:23:29.066Z,98079.22
2022-12-01T14:26:12.778Z,98070.88
2022-12-01T14:29:10.967Z,98083.50
2022-12-01T14:32:21.525Z,98073.28
2022-12-01T14:34:56.111Z,98071.31
2022-12-01T14:37:28.465Z,98065.31
2022-12-01T14:39:59.916Z,98073.66
2022-12-01T14:42:50.910Z,98063.84
2022-12-01T14:45:23.676Z,98067.38
2022-12-01T14:48:00.876Z,98074.53
2022-12-01T14:50:35.697Z,98073.06
2022-12-01T14:53:09.274Z,98066.53
2022-12-01T14:55:41.662Z,98046.81
2022-12-01T14:58:16.512Z,98054.50
2022-12-01T15:00:57.678Z,98065.53
2022-12-01T15:03:33.167Z,98064.69
2022-12-01T15:06:01.518Z,98072.78
2022-12-01T15:11:25.648Z,98071.97
2022-12-01T15:13:55.773Z,98073.31
2022-12-01T15:16:26.408Z,98072.91
2022-12-01T15:18:56.077Z,98082.63
2022-12-01T15:21:27.057Z,98091.19
2022-12-01T15:23:57.794Z,98076.75
2022-12-01T15:26:28.161Z,98077.34
2022-12-01T15:29:17.042Z,98082.09
2022-12-01T15:31:47.824Z,98088.53
2022-12-01T15:34:20.420Z,98092.16
2022-12-01T15:36:49.636Z,98087.22
2022-12-01T15:39:20.282Z,98088.63
2022-12-01T15:41:54.099Z,98081.56
2022-12-01T15:44:27.521Z,98083.84
2022-12-01T15:46:56.224Z,98081.03
2022-12-01T15:49:29.904Z,98081.50
2022-12-01T15:52:07.881Z,98093.22
2022-12-01T15:54:36.096Z,98095.25
2022-12-01T15:57:04.665Z,98092.84
2022-12-01T15:59:37.908Z,98091.66
2022-12-01T16:02:25.629Z,98093.19
2022-12-01T16:05:04.793Z,98089.50
2022-12-01T16:08:11.051Z,98104.03
2022-12-01T16:10:31.993Z,98093.22
2022-12-01T16:13:44.976Z,98093.84
2022-12-01T16:16:37.407Z,98099.13
2022-12-01T16:19:23.650Z,98096.63
2022-12-01T16:22:02.649Z,98095.13
2022-12-01T16:24:35.768Z,98091.59
2022-12-01T16:27:07.124Z,98093.13
2022-12-01T16:29:49.766Z,98116.97
2022-12-01T16:32:21.564Z,98103.97
2022-12-01T16:34:52.619Z,98088.88
2022-12-01T16:37:22.825Z,98102.44
2022-12-01T16:39:51.514Z,98105.03
2022-12-01T16:42:22.187Z,98122.19
2022-12-01T16:44:51.312Z,98111.31
2022-12-01T16:47:22.074Z,98116.84
2022-12-01T16:49:50.124Z,98114.81
2022-12-01T16:55:23.861Z,98116.09
2022-12-01T16:57:51.946Z,98114.72
2022-12-01T17:00:20.732Z,98131.19
2022-12-01T17:02:48.954Z,98120.44
2022-12-01T17:05:17.084Z,98089.72
2022-12-01T17:07:45.286Z,98116.78
2022-12-01T17:10:15.673Z,98126.34
2022-12-01T17:12:43.745Z,98127.06
2022-12-01T17:15:12.457Z,98126.16
2022-12-01T17:17:40.556Z,98125.69
2022-12-01T17:20:10.060Z,98125.03
2022-12-01T17:22:38.357Z,98112.72
2022-12-01T17:25:09.681Z,98123.75
2022-12-01T17:27:39.971Z,98120.34
2022-12-01T17:30:09.230Z,98114.72
2022-12-01T17:32:37.466Z,98081.78
2022-12-01T17:35:06.135Z,98118.84
2022-12-01T17:37:34.181Z,98102.31
2022-12-01T17:40:02.217Z,98112.22
2022-12-01T17:42:32.147Z,98108.91
2022-12-01T17:45:02.105Z,98109.44
2022-12-01T17:47:30.181Z,98101.63
2022-12-01T17:49:58.077Z,98097.41
2022-12-01T17:52:28.613Z,98105.59
2022-12-01T17:54:56.830Z,98114.34
2022-12-01T17:57:24.844Z,98119.97
2022-12-01T17:59:52.848Z,98112.66
2022-12-01T18:02:22.294Z,98118.97
2022-12-01T18:04:50.530Z,98111.34
2022-12-01T18:07:18.781Z,98102.88
2022-12-01T18:09:46.883Z,98108.03
2022-12-01T18:12:14.916Z,98111.94
2022-12-01T18:14:43.195Z,98114.19
2022-12-01T18:17:11.278Z,98109.84
2022-12-01T18:19:40.644Z,98101.19
2022-12-01T18:22:08.616Z,98099.41
2022-12-01T18:24:36.726Z,98096.88
2022-12-01T18:27:04.625Z,98105.16
2022-12-01T18:29:32.647Z,98105.44
2022-12-01T18:32:01.657Z,98102.31
2022-12-01T18:34:30.487Z,98116.78
2022-12-01T18:36:59.869Z,98067.84
2022-12-01T18:39:27.836Z,98106.91
2022-12-01T18:41:55.945Z,98104.88
2022-12-01T18:44:23.955Z,98101.00
2022-12-01T18:46:52.194Z,98118.97
2022-12-01T18:49:20.607Z,98116.66
2022-12-01T18:51:48.588Z,98080.69
2022-12-01T18:54:18.276Z,98113.50
2022-12-01T18:56:46.249Z,98095.06
2022-12-01T18:59:16.996Z,98105.38
2022-12-01T19:01:46.717Z,98112.34
2022-12-01T19:04:16.601Z,98109.63
2022-12-01T19:06:46.422Z,98095.38
2022-12-01T19:09:16.167Z,98092.06
2022-12-01T19:11:45.544Z,98105.94
2022-12-01T19:14:15.899Z,98097.31
2022-12-01T19:16:44.101Z,98096.91
2022-12-01T19:19:12.719Z,98109.84
2022-12-01T19:21:40.801Z,98103.59
2022-12-01T19:24:09.271Z,98095.16
2022-12-01T19:26:37.272Z,98104.81
2022-12-01T19:29:06.737Z,98099.84
2022-12-01T19:31:34.851Z,98097.31
2022-12-01T19:34:03.836Z,98089.00
2022-12-01T19:36:31.940Z,98091.25
2022-12-01T19:39:03.773Z,98106.97
2022-12-01T19:41:33.851Z,98101.47
2022-12-01T19:44:01.899Z,98078.88
2022-12-01T19:46:31.318Z,98117.88
2022-12-01T19:49:01.453Z,98108.88
2022-12-01T19:51:31.894Z,98114.78
2022-12-01T19:53:59.843Z,98116.81
2022-12-01T19:56:29.150Z,98125.88
2022-12-01T19:58:57.846Z,98116.22
2022-12-01T20:01:27.130Z,98104.25
2022-12-01T20:03:56.603Z,98110.97
2022-12-01T20:06:26.718Z,98095.41
2022-12-01T20:08:57.009Z,98112.22
2022-12-01T20:11:25.772Z,98089.69
2022-12-01T20:13:53.845Z,98113.03
2022-12-01T20:16:24.835Z,98135.81
2022-12-01T20:18:53.789Z,98134.03
2022-12-01T20:21:26.647Z,98116.84
2022-12-01T20:23:58.296Z,98134.69
2022-12-01T20:26:30.600Z,98122.06
2022-12-01T20:29:02.232Z,98106.94
2022-12-01T20:31:32.989Z,98090.84
2022-12-01T20:34:03.483Z,98112.34
2022-12-01T20:36:33.331Z,98105.00
2022-12-01T20:39:01.333Z,98103.88
2022-12-01T20:41:29.373Z,98121.91
2022-12-01T20:44:00.156Z,98131.06
2022-12-01T20:46:32.372Z,98100.09
2022-12-01T20:49:00.636Z,98112.47
2022-12-01T20:51:33.171Z,98115.41
2022-12-01T20:54:27.220Z,98093.19
2022-12-01T20:56:50.944Z,98108.22
2022-12-01T20:59:19.079Z,98111.22
2022-12-01T21:01:47.059Z,98115.28
2022-12-01T21:04:15.155Z,98091.66
2022-12-01T21:06:43.601Z,98111.72
2022-12-01T21:09:14.992Z,98117.78
2022-12-01T21:12:04.358Z,98120.16
2022-12-01T21:14:38.025Z,98118.03
2022-12-01T21:17:24.259Z,98109.88
2022-12-01T21:20:01.804Z,98107.69
2022-12-01T21:22:29.919Z,98131.50
2022-12-01T21:25:07.496Z,98112.19
2022-12-01T21:27:35.559Z,98139.41
2022-12-01T21:30:15.207Z,98123.47
2022-12-01T21:32:44.776Z,98127.88
2022-12-01T21:35:28.105Z,98129.09
2022-12-01T21:38:03.460Z,98128.41
2022-12-01T21:40:33.189Z,98091.34
2022-12-01T21:43:18.749Z,98124.09
2022-12-01T21:45:47.579Z,98104.13
2022-12-01T21:48:17.967Z,98113.34
2022-12-01T21:50:53.970Z,98133.88
2022-12-01T21:53:22.690Z,98117.84
2022-12-01T21:55:52.114Z,98096.88
2022-12-01T21:58:28.192Z,98111.50
2022-12-01T22:00:58.230Z,98106.19
2022-12-01T22:03:31.073Z,98113.50
2022-12-01T22:06:28.817Z,98062.63
2022-12-01T22:08:59.829Z,98056.53
2022-12-01T22:11:31.741Z,98126.53
2022-12-01T22:14:13.481Z,98088.38
2022-12-01T22:16:43.654Z,98056.31
2022-12-01T22:19:26.499Z,98110.53
2022-12-01T22:22:00.706Z,98123.56
2022-12-01T22:24:40.674Z,98102.81
2022-12-01T22:27:26.251Z,98114.09
2022-12-01T22:29:59.104Z,98114.59
2022-12-01T22:32:39.507Z,98109.34
2022-12-01T22:35:24.300Z,98099.47
2022-12-01T22:37:54.179Z,98087.84
2022-12-01T22:40:51.637Z,98078.22
2022-12-01T22:43:44.695Z,98085.50
2022-12-01T22:46:23.723Z,98052.22
2022-12-01T22:48:53.910Z,98065.06
2022-12-01T22:51:31.540Z,98084.91
2022-12-01T22:54:07.419Z,98079.41
2022-12-01T22:56:39.323Z,98097.25
2022-12-01T22:59:16.059Z,98084.50
2022-12-01T23:01:50.081Z,98060.56
2022-12-01T23:04:26.599Z,98073.81
2022-12-01T23:15:50.778Z,98067.41
2022-12-01T23:18:22.247Z,98054.56
2022-12-01T23:20:52.052Z,98060.22
2022-12-01T23:23:22.185Z,98066.84
2022-12-01T23:25:51.773Z,98038.47
2022-12-01T23:28:20.458Z,98067.53
2022-12-01T23:30:54.103Z,98051.25
2022-12-01T23:33:24.223Z,98056.91
2022-12-01T23:35:55.205Z,98048.75
2022-12-01T23:38:25.483Z,98023.47
2022-12-01T23:40:57.489Z,98015.75
2022-12-01T23:43:28.564Z,98017.47
2022-12-01T23:46:04.441Z,98049.88
2022-12-01T23:48:35.829Z,98047.75
2022-12-01T23:51:04.225Z,98057.69
2022-12-01T23:53:34.063Z,98055.97
2022-12-01T23:56:14.080Z,98015.34
2022-12-01T23:58:42.209Z,98041.19
